Relevés horaires St-Hubert (Belgique)


Relevés horaires à St-Hubert - Lundi 09 Mai 2022
Heure UTC1 Température [°C] Vent [km/h] Hum. [%] Pres.4 [hPa] Visi. [Km] Nébu. [octa] Préc.5 [mm] Cond.
2m. Res. Ros. Dir.2 Vit. Moy. Raf.3
23:00 13.0 13.0 7.2 SSE 1.9 1.9 1.9 68 1023.1(-0.4/3h) 40 0/8 -- --
22:00 13.9 13.9 6.0 O 1.9 1.9 3.7 59 1023.6(0.4/3h) 45 0/8 -- --
21:00 14.7 14.7 7.0 O 1.9 3.7 5.6 60 1023.5(0.4/3h) 45 0/8 -- --
20:00 15.9 15.9 7.3 SSE 1.9 1.9 3.7 57 1022.9(0.2/3h) 45 8/8 -- --
19:00 18.5 18.5 7.0 NO 1.9 3.7 5.6 47 1022.1(-0.3/3h) 45 8/8 -- --
18:00 19.6 19.6 7.3 NO 3.7 7.4 11.1 45 1021.9(-0.5/3h) 35 8/8 0/12h
--
17:00 20.2 20.2 7.4 NO 3.7 5.6 9.3 43 1021.7(-0.8/3h) 35 8/8 -- --
16:00 19.2 19.2 7.3 NNO 3.7 5.6 7.4 46 1022.3(-0.9/3h) 30 8/8 -- --
15:00 19.0 19.0 8.2 SSO 1.9 7.4 11.1 49 1022.6(-1.0/3h) 40 8/8 -- --
14:00 19.1 19.1 6.0 NNO 3.7 5.6 9.3 42 1022.9(-1.2/3h) 40 5/8 -- --
13:00 19.9 19.9 7.3 NNO 3.7 7.4 11.1 44 1023.2(-1.1/3h) 30 0/8 -- --
12:00 19.2 19.2 9.3 NNO 3.7 5.6 11.1 53 1023.6(-1.0/3h) 29 0/8 0/6h
--
11:00 18.7 18.7 7.1 S 3.7 5.6 11.1 47 1024.2(-0.4/3h) 35 0/8 -- --
10:00 18.2 18.2 8.6 NNO 3.7 3.7 11.1 53 1024.7(0.1/3h) 30 0/8 -- --
09:00 17.0 17.0 8.4 SSO 3.7 5.6 9.3 57 1025.1(0.6/3h) 35 0/8 -- --
08:00 16.0 16.0 8.3 SE 3.7 5.6 7.4 60 1025.2(0.7/3h) 30 0/8 -- --
07:00 13.1 13.1 7.5 E 5.6 5.6 9.3 69 1025.8(0.6/3h) 26 0/8 -- --
06:00 11.0 10.7 6.2 E 5.6 9.3 13.0 72 1025.9(-0.1/3h) 35 0/8 0/12h
--
05:00 9.4 8.9 5.0 E 5.6 7.4 9.3 74 1026.1(-0.2/3h) 35 0/8 -- --
04:00 8.7 8.1 4.3 E 5.6 7.4 9.3 74 1026.3(-0.4/3h) 45 0/8 -- --
03:00 8.3 7.1 3.8 E 7.4 9.3 13.0 73 1026.6(-0.5/3h) 40 0/8 -- --
02:00 8.9 7.9 4.4 ENE 7.4 9.3 13.0 73 1026.5(-0.7/3h) 45 0/8 -- --
01:00 8.5 7 3.8 ENE 9.3 9.3 13.0 72 1026.8(-0.4/3h) 45 0/8 -- --

1 Coordinated Universal Time. Actuellement il est 22:00 locale et 21:00 UTC.

2 Le vent souffle depuis la direction indiquée vers la direction oposée.

3 Les rafales max. sont disponible 40 min après l'heure du relevé.

4 Pour les stations d'altitude (plus de 600m) le géopotentiel du niveau le plus proche de la pression obligatoire est indiqué.

5 Les stations disposant d'un diffuseur peuvent indiquer "trace". Cela signifie que des précipitations ont touchés le sol mais que la quantité est inférieure à 0.1 mm.

Récapitulatif de la journée
Température [°C] Vent [km/h] Ensoleillement4 [h] Precipitations totale5 [mm] Pression [Hpa]
Min1 Max.2 Moy.3 Max. Min Max.
8.0 20.9 5.9 13.0 0 h 0 min 0 1021.7 1026.8

1 Température minimale relevée entre 18:00 UTC la veille et 18:00 UTC le jour donné.

2 Température maximale relevée entre 06:00 UTC le jour donné et 06:00 UTC le lendemain.

3 Vent moyen de la journée basé sur les relevés horaires.

4 Ensoleillement en heures relevé entre 06:00 UTC la veille et 06:00 UTC le jour donné.

5 Précipitations totales tombées entre 06:00 UTC la jour donné et 06:00 UTC le lendemain.

Graphiques horaires